createdAt,value
2019-03-10T00:00:42.379Z,964.80
2019-03-10T00:01:42.287Z,964.76
2019-03-10T00:02:42.232Z,964.79
2019-03-10T00:03:42.180Z,964.73
2019-03-10T00:04:42.119Z,964.76
2019-03-10T00:05:42.103Z,964.73
2019-03-10T00:06:42.046Z,964.72
2019-03-10T00:07:41.954Z,964.66
2019-03-10T00:08:41.900Z,964.64
2019-03-10T00:09:41.842Z,964.62
2019-03-10T00:10:41.788Z,964.62
2019-03-10T00:11:41.771Z,964.64
2019-03-10T00:12:41.677Z,964.62
2019-03-10T00:13:41.626Z,964.62
2019-03-10T00:14:41.563Z,964.61
2019-03-10T00:15:41.545Z,964.63
2019-03-10T00:16:41.455Z,964.61
2019-03-10T00:17:41.429Z,964.58
2019-03-10T00:18:41.344Z,964.59
2019-03-10T00:19:41.289Z,964.56
2019-03-10T00:20:41.232Z,964.52
2019-03-10T00:21:41.208Z,964.48
2019-03-10T00:22:41.128Z,964.45
2019-03-10T00:23:41.063Z,964.43
2019-03-10T00:24:41.011Z,964.40
2019-03-10T00:25:40.962Z,964.41
2019-03-10T00:26:40.943Z,964.34
2019-03-10T00:27:40.846Z,964.38
2019-03-10T00:28:40.789Z,964.35
2019-03-10T00:29:40.730Z,964.32
2019-03-10T00:30:40.678Z,964.33
2019-03-10T00:31:40.664Z,964.32
2019-03-10T00:32:40.571Z,964.30
2019-03-10T00:33:40.506Z,964.37
2019-03-10T00:34:40.453Z,964.34
2019-03-10T00:35:40.403Z,964.33
2019-03-10T00:36:40.375Z,964.27
2019-03-10T00:37:40.332Z,964.26
2019-03-10T00:38:40.231Z,964.18
2019-03-10T00:39:40.176Z,964.22
2019-03-10T00:40:40.120Z,964.24
2019-03-10T00:41:40.064Z,964.13
2019-03-10T00:42:40.062Z,964.20
2019-03-10T00:43:39.955Z,964.17
2019-03-10T00:44:39.898Z,964.18
2019-03-10T00:45:39.845Z,964.21
2019-03-10T00:46:39.788Z,964.19
2019-03-10T00:47:39.788Z,964.04
2019-03-10T00:48:39.680Z,964.16
2019-03-10T00:49:39.620Z,964.11
2019-03-10T00:50:39.562Z,964.14
2019-03-10T00:51:39.566Z,964.12
2019-03-10T00:52:39.486Z,964.06
2019-03-10T00:53:39.395Z,964.14
2019-03-10T00:54:39.342Z,964.17
2019-03-10T00:55:39.286Z,964.18
2019-03-10T00:56:39.231Z,964.20
2019-03-10T00:57:39.198Z,964.24
2019-03-10T00:58:39.120Z,964.26
2019-03-10T00:59:39.063Z,964.26
2019-03-10T01:00:39.010Z,964.26
2019-03-10T01:01:38.989Z,964.16
2019-03-10T01:02:38.897Z,964.15
2019-03-10T01:03:38.842Z,964.11
2019-03-10T01:04:38.783Z,964.10
2019-03-10T01:05:38.731Z,964.09
2019-03-10T01:06:38.700Z,964.07
2019-03-10T01:07:38.616Z,964.08
2019-03-10T01:08:38.603Z,964.04
2019-03-10T01:09:38.545Z,964.01
2019-03-10T01:10:38.449Z,964.04
2019-03-10T01:11:38.416Z,964.04
2019-03-10T01:12:38.342Z,963.95
2019-03-10T01:13:38.286Z,963.94
2019-03-10T01:14:38.276Z,963.95
2019-03-10T01:15:38.173Z,963.89
2019-03-10T01:16:38.119Z,963.91
2019-03-10T01:17:38.061Z,963.94
2019-03-10T01:18:38.005Z,963.82
2019-03-10T01:19:37.980Z,963.79
2019-03-10T01:20:37.897Z,963.78
2019-03-10T01:21:37.837Z,963.75
2019-03-10T01:22:37.835Z,963.79
2019-03-10T01:23:37.729Z,963.79
2019-03-10T01:24:37.671Z,963.80
2019-03-10T01:25:37.611Z,963.78
2019-03-10T01:26:37.558Z,963.67
2019-03-10T01:27:37.538Z,963.72
2019-03-10T01:28:37.464Z,963.74
2019-03-10T01:29:37.388Z,963.69
2019-03-10T01:30:37.367Z,963.69
2019-03-10T01:31:37.283Z,963.67
2019-03-10T01:32:37.223Z,963.70
2019-03-10T01:33:37.210Z,963.66
2019-03-10T01:34:37.114Z,963.66
2019-03-10T01:35:37.058Z,963.66
2019-03-10T01:36:37.000Z,963.67
2019-03-10T01:37:36.945Z,963.67
2019-03-10T01:38:36.922Z,963.69
2019-03-10T01:39:36.835Z,963.61
2019-03-10T01:40:36.786Z,963.59
2019-03-10T01:41:36.721Z,963.55
2019-03-10T01:42:36.666Z,963.62
2019-03-10T01:43:36.647Z,963.50
2019-03-10T01:44:36.583Z,963.53
2019-03-10T01:45:36.502Z,963.54
2019-03-10T01:46:36.444Z,963.50
2019-03-10T01:47:36.390Z,963.40
2019-03-10T01:48:36.368Z,963.41
2019-03-10T01:49:36.315Z,963.43
2019-03-10T01:50:36.237Z,963.39
2019-03-10T01:51:36.165Z,963.31
2019-03-10T01:52:36.111Z,963.30
2019-03-10T01:53:36.057Z,963.37
2019-03-10T01:54:36.081Z,963.36
2019-03-10T01:55:35.982Z,963.35
2019-03-10T01:56:35.890Z,963.27
2019-03-10T01:57:35.834Z,963.35
2019-03-10T01:58:35.774Z,963.31
2019-03-10T01:59:35.723Z,963.28
2019-03-10T02:00:35.697Z,963.32
2019-03-10T02:01:35.607Z,963.22
2019-03-10T02:02:35.558Z,963.27
2019-03-10T02:03:35.498Z,963.24
2019-03-10T02:04:35.443Z,963.25
2019-03-10T02:05:35.426Z,963.14
2019-03-10T02:06:35.333Z,963.26
2019-03-10T02:07:35.275Z,963.20
2019-03-10T02:08:35.218Z,963.18
2019-03-10T02:09:35.162Z,963.14
2019-03-10T02:10:35.149Z,963.17
2019-03-10T02:11:35.052Z,963.13
2019-03-10T02:12:34.998Z,963.10
2019-03-10T02:13:34.956Z,963.14
2019-03-10T02:14:34.890Z,963.10
2019-03-10T02:15:34.861Z,963.00
2019-03-10T02:16:34.779Z,963.05
2019-03-10T02:17:34.719Z,963.05
2019-03-10T02:18:34.700Z,963.03
2019-03-10T02:19:34.616Z,963.01
2019-03-10T02:20:34.551Z,963.01
2019-03-10T02:21:34.501Z,963.06
2019-03-10T02:22:34.439Z,963.06
2019-03-10T02:23:34.415Z,963.01
2019-03-10T02:24:34.330Z,963.00
2019-03-10T02:25:34.274Z,962.93
2019-03-10T02:26:34.216Z,962.92
2019-03-10T02:27:34.161Z,962.89
2019-03-10T02:28:34.146Z,962.84
2019-03-10T02:29:34.050Z,962.88
2019-03-10T02:30:33.995Z,962.83
2019-03-10T02:31:33.938Z,962.77
2019-03-10T02:32:33.883Z,962.75
2019-03-10T02:33:33.879Z,962.74
2019-03-10T02:34:33.773Z,962.71
2019-03-10T02:35:33.716Z,962.64
2019-03-10T02:36:33.660Z,962.63
2019-03-10T02:37:33.603Z,962.53
2019-03-10T02:38:33.581Z,962.52
2019-03-10T02:39:33.490Z,962.46
2019-03-10T02:40:33.435Z,962.46
2019-03-10T02:41:33.381Z,962.39
2019-03-10T02:42:33.330Z,962.41
2019-03-10T02:43:33.302Z,962.32
2019-03-10T02:44:33.219Z,962.35
2019-03-10T02:45:33.158Z,962.32
2019-03-10T02:46:33.137Z,962.29
2019-03-10T02:47:33.046Z,962.23
2019-03-10T02:48:32.993Z,962.18
2019-03-10T02:49:32.938Z,962.24
2019-03-10T02:50:32.912Z,962.14
2019-03-10T02:51:32.828Z,962.20
2019-03-10T02:52:32.766Z,962.16
2019-03-10T02:53:32.740Z,962.15
2019-03-10T02:54:32.660Z,962.08
2019-03-10T02:55:32.620Z,962.09
2019-03-10T02:56:32.546Z,962.10
2019-03-10T02:57:32.494Z,962.07
2019-03-10T02:58:32.476Z,962.11
2019-03-10T02:59:32.383Z,962.09
2019-03-10T03:00:32.325Z,962.06
2019-03-10T03:01:32.269Z,962.07
2019-03-10T03:02:32.211Z,962.06
2019-03-10T03:03:32.190Z,962.03
2019-03-10T03:04:32.103Z,961.93
2019-03-10T03:05:32.071Z,961.82
2019-03-10T03:06:31.991Z,961.74
2019-03-10T03:07:31.935Z,961.70
2019-03-10T03:08:31.910Z,961.64
2019-03-10T03:09:31.824Z,961.54
2019-03-10T03:10:31.768Z,961.53
2019-03-10T03:11:31.712Z,961.49
2019-03-10T03:12:31.653Z,961.42
2019-03-10T03:13:31.630Z,961.37
2019-03-10T03:14:31.543Z,961.34
2019-03-10T03:15:31.503Z,961.29
2019-03-10T03:16:31.435Z,961.27
2019-03-10T03:17:31.378Z,961.31
2019-03-10T03:18:31.351Z,961.30
2019-03-10T03:19:31.275Z,961.29
2019-03-10T03:20:31.214Z,961.26
2019-03-10T03:21:42.495Z,961.23
2019-03-10T03:22:31.115Z,961.22
2019-03-10T03:23:31.082Z,961.17
2019-03-10T03:24:30.988Z,961.13
2019-03-10T03:25:30.932Z,961.16
2019-03-10T03:26:30.881Z,961.18
2019-03-10T03:27:30.852Z,961.16
2019-03-10T03:28:30.766Z,961.21
2019-03-10T03:29:30.709Z,961.15
2019-03-10T03:30:30.663Z,961.10
2019-03-10T03:31:30.630Z,961.14
2019-03-10T03:32:30.550Z,961.13
2019-03-10T03:33:30.535Z,961.09
2019-03-10T03:34:30.458Z,961.09
2019-03-10T03:35:30.378Z,961.08
2019-03-10T03:36:30.322Z,961.11
2019-03-10T03:37:30.271Z,961.09
2019-03-10T03:38:30.241Z,961.03
2019-03-10T03:39:30.154Z,961.00
2019-03-10T03:40:30.099Z,960.95
2019-03-10T03:41:30.040Z,960.93
2019-03-10T03:42:30.077Z,960.93
2019-03-10T03:43:29.995Z,960.87
2019-03-10T03:44:29.916Z,960.85
2019-03-10T03:45:29.820Z,960.84
2019-03-10T03:46:29.765Z,960.77
2019-03-10T03:47:29.713Z,960.71
2019-03-10T03:48:29.653Z,960.70
2019-03-10T03:49:29.633Z,960.68
2019-03-10T03:50:29.542Z,960.71
2019-03-10T03:51:29.498Z,960.75
2019-03-10T03:52:29.432Z,960.72
2019-03-10T03:53:29.412Z,960.65
2019-03-10T03:54:29.345Z,960.67
2019-03-10T03:55:29.266Z,960.70
2019-03-10T03:56:29.210Z,960.68
2019-03-10T03:57:29.154Z,960.70
2019-03-10T03:58:29.139Z,960.66
2019-03-10T03:59:29.046Z,960.65
2019-03-10T04:00:28.991Z,960.65
2019-03-10T04:01:28.931Z,960.64
2019-03-10T04:02:28.877Z,960.62
2019-03-10T04:03:28.849Z,960.62
2019-03-10T04:04:28.767Z,960.56
2019-03-10T04:05:28.710Z,960.52
2019-03-10T04:06:28.655Z,960.51
2019-03-10T04:07:28.621Z,960.51
2019-03-10T04:08:28.543Z,960.53
2019-03-10T04:09:28.518Z,960.49
2019-03-10T04:10:28.430Z,960.47
2019-03-10T04:11:28.377Z,960.49
2019-03-10T04:12:28.320Z,960.49
2019-03-10T04:13:28.296Z,960.43
2019-03-10T04:14:28.209Z,960.41
2019-03-10T04:15:28.159Z,960.41
2019-03-10T04:16:28.128Z,960.36
2019-03-10T04:17:28.046Z,960.32
2019-03-10T04:18:27.995Z,960.31
2019-03-10T04:19:27.974Z,960.29
2019-03-10T04:20:27.875Z,960.28
2019-03-10T04:21:27.819Z,960.27
2019-03-10T04:22:27.793Z,960.25
2019-03-10T04:23:27.705Z,960.27
2019-03-10T04:24:27.651Z,960.29
2019-03-10T04:25:27.629Z,960.24
2019-03-10T04:26:27.539Z,960.24
2019-03-10T04:27:27.487Z,960.29
2019-03-10T04:28:27.430Z,960.26
2019-03-10T04:29:27.409Z,960.19
2019-03-10T04:30:27.319Z,960.17
2019-03-10T04:31:27.263Z,960.16
2019-03-10T04:32:27.206Z,960.14
2019-03-10T04:33:27.180Z,960.12
2019-03-10T04:34:27.097Z,960.09
2019-03-10T04:35:27.073Z,960.05
2019-03-10T04:36:26.986Z,960.08
2019-03-10T04:37:26.927Z,960.06
2019-03-10T04:38:26.872Z,960.05
2019-03-10T04:39:26.849Z,959.98
2019-03-10T04:40:26.762Z,959.95
2019-03-10T04:41:26.706Z,959.90
2019-03-10T04:42:26.688Z,959.89
2019-03-10T04:43:26.595Z,959.83
2019-03-10T04:44:26.545Z,959.78
2019-03-10T04:45:26.483Z,959.77
2019-03-10T04:46:26.443Z,959.74
2019-03-10T04:47:26.414Z,959.64
2019-03-10T04:48:26.322Z,959.60
2019-03-10T04:49:26.260Z,959.56
2019-03-10T04:50:26.207Z,959.47
2019-03-10T04:51:26.155Z,959.43
2019-03-10T04:52:26.129Z,959.38
2019-03-10T04:53:26.046Z,959.32
2019-03-10T04:54:25.986Z,959.29
2019-03-10T04:55:25.959Z,959.24
2019-03-10T04:56:25.876Z,959.19
2019-03-10T04:57:25.815Z,959.15
2019-03-10T04:58:25.791Z,959.06
2019-03-10T04:59:25.704Z,959.02
2019-03-10T05:00:25.657Z,958.93
2019-03-10T05:01:25.596Z,958.85
2019-03-10T05:02:25.538Z,958.85
2019-03-10T05:03:25.513Z,958.87
2019-03-10T05:04:25.428Z,958.87
2019-03-10T05:05:25.400Z,958.87
2019-03-10T05:06:25.316Z,958.84
2019-03-10T05:07:25.292Z,958.82
2019-03-10T05:08:25.204Z,958.80
2019-03-10T05:09:25.153Z,958.78
2019-03-10T05:10:25.359Z,958.84
2019-03-10T05:11:25.038Z,958.77
2019-03-10T05:12:25.021Z,958.78
2019-03-10T05:13:24.930Z,958.76
2019-03-10T05:14:24.870Z,958.76
2019-03-10T05:15:24.817Z,958.76
2019-03-10T05:16:24.759Z,958.72
2019-03-10T05:17:24.736Z,958.67
2019-03-10T05:18:24.647Z,958.65
2019-03-10T05:19:24.595Z,958.67
2019-03-10T05:20:24.538Z,958.60
2019-03-10T05:21:24.512Z,958.59
2019-03-10T05:22:24.425Z,958.59
2019-03-10T05:23:24.401Z,958.55
2019-03-10T05:24:24.315Z,958.54
2019-03-10T05:25:24.264Z,958.51
2019-03-10T05:26:24.207Z,958.48
2019-03-10T05:27:24.146Z,958.49
2019-03-10T05:28:24.131Z,958.47
2019-03-10T05:29:24.035Z,958.46
2019-03-10T05:30:23.987Z,958.41
2019-03-10T05:31:23.925Z,958.34
2019-03-10T05:32:23.871Z,958.37
2019-03-10T05:33:23.846Z,958.46
2019-03-10T05:34:23.763Z,958.50
2019-03-10T05:35:23.699Z,958.46
2019-03-10T05:36:23.670Z,958.50
2019-03-10T05:37:23.591Z,958.49
2019-03-10T05:38:23.533Z,958.44
2019-03-10T05:39:23.487Z,958.40
2019-03-10T05:40:23.472Z,958.33
2019-03-10T05:41:23.367Z,958.31
2019-03-10T05:42:23.315Z,958.29
2019-03-10T05:43:23.261Z,958.29
2019-03-10T05:44:23.203Z,958.23
2019-03-10T05:45:23.181Z,958.21
2019-03-10T05:46:23.092Z,958.18
2019-03-10T05:47:23.038Z,958.14
2019-03-10T05:48:22.979Z,958.10
2019-03-10T05:49:22.952Z,958.07
2019-03-10T05:50:22.907Z,958.06
2019-03-10T05:51:22.816Z,958.06
2019-03-10T05:52:22.757Z,958.08
2019-03-10T05:53:22.702Z,958.08
2019-03-10T05:54:22.646Z,958.07
2019-03-10T05:55:22.632Z,958.02
2019-03-10T05:56:22.533Z,958.04
2019-03-10T05:57:22.477Z,958.03
2019-03-10T05:58:22.424Z,958.02
2019-03-10T05:59:22.367Z,957.97
2019-03-10T06:00:22.344Z,957.98
2019-03-10T06:01:22.285Z,958.00
2019-03-10T06:02:22.227Z,957.98
2019-03-10T06:03:22.143Z,957.93
2019-03-10T06:04:22.093Z,957.91
2019-03-10T06:05:22.032Z,957.91
2019-03-10T06:06:22.019Z,957.90
2019-03-10T06:07:21.925Z,957.92
2019-03-10T06:08:21.865Z,957.89
2019-03-10T06:09:21.809Z,957.85
2019-03-10T06:10:21.765Z,957.84
2019-03-10T06:11:21.729Z,957.77
2019-03-10T06:12:21.643Z,957.76
2019-03-10T06:13:21.585Z,957.71
2019-03-10T06:14:21.531Z,957.75
2019-03-10T06:15:21.474Z,957.73
2019-03-10T06:16:21.454Z,957.66
2019-03-10T06:17:21.653Z,957.55
2019-03-10T06:18:21.361Z,957.53
2019-03-10T06:19:21.250Z,957.54
2019-03-10T06:20:21.197Z,957.47
2019-03-10T06:21:21.148Z,957.50
2019-03-10T06:22:21.082Z,957.52
2019-03-10T06:23:21.057Z,957.50
2019-03-10T06:24:20.971Z,957.44
2019-03-10T06:25:20.918Z,957.46
2019-03-10T06:26:20.856Z,957.38
2019-03-10T06:27:20.802Z,957.33
2019-03-10T06:28:20.775Z,957.29
2019-03-10T06:29:20.690Z,957.23
2019-03-10T06:30:20.639Z,957.19
2019-03-10T06:31:20.576Z,957.20
2019-03-10T06:32:20.526Z,957.15
2019-03-10T06:33:20.509Z,957.09
2019-03-10T06:34:20.406Z,957.06
2019-03-10T06:35:20.351Z,957.02
2019-03-10T06:36:20.297Z,956.94
2019-03-10T06:37:20.239Z,956.93
2019-03-10T06:38:20.228Z,956.87
2019-03-10T06:39:20.125Z,956.89
2019-03-10T06:40:20.070Z,956.92
2019-03-10T06:41:20.016Z,956.84
2019-03-10T06:42:19.962Z,956.76
2019-03-10T06:43:19.936Z,956.73
2019-03-10T06:44:21.104Z,956.76
2019-03-10T06:45:19.787Z,956.73
2019-03-10T06:46:19.728Z,956.75
2019-03-10T06:47:19.675Z,956.57
2019-03-10T06:48:19.617Z,956.54
2019-03-10T06:49:19.603Z,956.54
2019-03-10T06:50:19.503Z,956.54
2019-03-10T06:51:19.449Z,956.49
2019-03-10T06:52:19.394Z,956.40
2019-03-10T06:53:19.335Z,956.32
2019-03-10T06:54:19.309Z,956.36
2019-03-10T06:55:19.262Z,956.36
2019-03-10T06:56:19.170Z,956.34
2019-03-10T06:57:19.111Z,956.29
2019-03-10T06:58:19.054Z,956.26
2019-03-10T06:59:18.996Z,956.25
2019-03-10T07:00:18.978Z,956.24
2019-03-10T07:01:18.884Z,956.18
2019-03-10T07:02:18.828Z,956.10
2019-03-10T07:03:18.819Z,956.11
2019-03-10T07:04:18.726Z,956.00
2019-03-10T07:05:18.662Z,955.92
2019-03-10T07:06:18.602Z,955.88
2019-03-10T07:07:18.545Z,955.90
2019-03-10T07:08:18.520Z,955.86
2019-03-10T07:09:18.457Z,955.89
2019-03-10T07:10:18.378Z,955.80
2019-03-10T07:11:18.335Z,955.72
2019-03-10T07:12:18.264Z,955.64
2019-03-10T07:13:18.209Z,955.58
2019-03-10T07:14:18.180Z,955.54
2019-03-10T07:15:18.106Z,955.56
2019-03-10T07:16:18.039Z,955.52
2019-03-10T07:17:17.979Z,955.50
2019-03-10T07:18:17.925Z,955.48
2019-03-10T07:19:17.899Z,955.42
2019-03-10T07:20:17.814Z,955.37
2019-03-10T07:21:17.760Z,955.38
2019-03-10T07:22:17.698Z,955.36
2019-03-10T07:23:17.645Z,955.33
2019-03-10T07:24:17.621Z,955.35
2019-03-10T07:25:17.534Z,955.40
2019-03-10T07:26:17.471Z,955.36
2019-03-10T07:27:17.416Z,955.30
2019-03-10T07:28:17.358Z,955.34
2019-03-10T07:29:17.350Z,955.36
2019-03-10T07:30:17.245Z,955.30
2019-03-10T07:31:17.193Z,955.29
2019-03-10T07:32:17.133Z,955.30
2019-03-10T07:33:17.077Z,955.32
2019-03-10T07:34:17.077Z,955.28
2019-03-10T07:35:16.963Z,955.29
2019-03-10T07:36:16.907Z,955.23
2019-03-10T07:37:16.886Z,955.17
2019-03-10T07:38:16.796Z,955.19
2019-03-10T07:39:16.738Z,955.07
2019-03-10T07:40:16.683Z,955.06
2019-03-10T07:41:16.626Z,955.02
2019-03-10T07:42:16.624Z,954.96
2019-03-10T07:43:16.517Z,954.88
2019-03-10T07:44:16.454Z,954.84
2019-03-10T07:45:16.401Z,954.80
2019-03-10T07:46:16.342Z,954.88
2019-03-10T07:47:16.332Z,954.83
2019-03-10T07:48:16.231Z,954.87
2019-03-10T07:49:18.065Z,954.86
2019-03-10T07:50:16.125Z,954.80
2019-03-10T07:51:16.064Z,954.81
2019-03-10T07:52:20.229Z,954.82
2019-03-10T07:53:15.996Z,954.79
2019-03-10T07:54:15.927Z,954.75
2019-03-10T07:55:15.836Z,954.79
2019-03-10T07:56:15.782Z,954.75
2019-03-10T07:57:15.729Z,954.68
2019-03-10T07:58:15.772Z,954.68
2019-03-10T07:59:15.652Z,954.65
2019-03-10T08:00:15.556Z,954.62
2019-03-10T08:01:15.498Z,954.63
2019-03-10T08:02:15.443Z,954.67
2019-03-10T08:03:15.393Z,954.57
2019-03-10T08:04:15.387Z,954.54
2019-03-10T08:05:15.271Z,954.55
2019-03-10T08:06:15.217Z,954.60
2019-03-10T08:07:15.160Z,954.59
2019-03-10T08:08:15.113Z,954.59
2019-03-10T08:09:15.078Z,954.57
2019-03-10T08:10:14.997Z,954.56
2019-03-10T08:11:14.938Z,954.57
2019-03-10T08:12:14.880Z,954.51
2019-03-10T08:13:14.819Z,954.56
2019-03-10T08:14:14.806Z,954.52
2019-03-10T08:15:14.714Z,954.52
2019-03-10T08:16:14.657Z,954.58
2019-03-10T08:17:14.597Z,954.64
2019-03-10T08:18:14.542Z,954.54
2019-03-10T08:19:14.539Z,954.42
2019-03-10T08:20:14.433Z,954.40
2019-03-10T08:21:14.408Z,954.37
2019-03-10T08:22:14.326Z,954.41
2019-03-10T08:23:14.273Z,954.37
2019-03-10T08:24:14.204Z,954.30
2019-03-10T08:25:14.146Z,954.33
2019-03-10T08:26:14.119Z,954.33
2019-03-10T08:27:14.067Z,954.30
2019-03-10T08:28:13.994Z,954.26
2019-03-10T08:29:13.920Z,954.18
2019-03-10T08:30:13.891Z,954.22
2019-03-10T08:31:13.842Z,954.30
2019-03-10T08:32:13.785Z,954.22
2019-03-10T08:33:13.694Z,954.21
2019-03-10T08:34:13.637Z,954.24
2019-03-10T08:35:13.605Z,954.19
2019-03-10T08:36:13.937Z,954.19
2019-03-10T08:37:13.472Z,954.32
2019-03-10T08:38:13.451Z,954.33
2019-03-10T08:39:13.357Z,954.27
2019-03-10T08:40:13.301Z,954.16
2019-03-10T08:41:13.291Z,954.21
2019-03-10T08:42:20.187Z,954.07
2019-03-10T08:43:13.130Z,954.13
2019-03-10T08:44:13.073Z,954.10
2019-03-10T08:45:13.018Z,953.98
2019-03-10T08:46:13.000Z,954.06
2019-03-10T08:47:12.905Z,953.89
2019-03-10T08:48:12.850Z,953.91
2019-03-10T08:49:12.801Z,953.91
2019-03-10T08:50:12.735Z,953.91
2019-03-10T08:51:12.713Z,953.94
2019-03-10T08:52:12.622Z,953.81
2019-03-10T08:53:12.784Z,953.82
2019-03-10T08:54:12.512Z,953.94
2019-03-10T08:55:12.452Z,953.97
2019-03-10T08:56:12.422Z,953.95
2019-03-10T08:57:12.342Z,953.83
2019-03-10T08:58:12.284Z,953.84
2019-03-10T08:59:12.233Z,953.81
2019-03-10T09:00:12.173Z,953.86
2019-03-10T09:01:12.148Z,953.89
2019-03-10T09:02:12.060Z,953.83
2019-03-10T09:03:12.003Z,953.57
2019-03-10T09:04:11.948Z,953.74
2019-03-10T09:05:11.923Z,953.74
2019-03-10T09:06:11.875Z,953.72
2019-03-10T09:07:11.784Z,953.78
2019-03-10T09:08:11.722Z,953.79
2019-03-10T09:09:11.678Z,953.50
2019-03-10T09:10:11.609Z,953.73
2019-03-10T09:11:11.593Z,953.74
2019-03-10T09:12:11.496Z,953.65
2019-03-10T09:13:11.441Z,953.54
2019-03-10T09:14:11.417Z,953.51
2019-03-10T09:15:11.373Z,953.58
2019-03-10T09:16:11.273Z,953.47
2019-03-10T09:17:11.218Z,953.51
2019-03-10T09:18:11.194Z,953.45
2019-03-10T09:19:11.101Z,953.46
2019-03-10T09:20:11.048Z,953.54
2019-03-10T09:21:10.993Z,953.37
2019-03-10T09:22:10.936Z,953.41
2019-03-10T09:23:10.932Z,953.39
2019-03-10T09:24:10.829Z,953.33
2019-03-10T09:25:10.773Z,953.29
2019-03-10T09:26:10.709Z,953.26
2019-03-10T09:27:10.663Z,953.31
2019-03-10T09:28:10.652Z,953.21
2019-03-10T09:29:10.543Z,953.27
2019-03-10T09:30:10.494Z,953.32
2019-03-10T09:31:10.431Z,953.17
2019-03-10T09:32:10.377Z,953.16
2019-03-10T09:33:10.374Z,953.26
2019-03-10T09:34:10.263Z,953.29
2019-03-10T09:35:10.213Z,953.34
2019-03-10T09:36:10.151Z,953.28
2019-03-10T09:37:10.097Z,953.28
2019-03-10T09:38:10.673Z,953.18
2019-03-10T09:39:09.990Z,953.25
2019-03-10T09:40:09.993Z,953.03
2019-03-10T09:41:09.890Z,953.15
2019-03-10T09:42:09.848Z,953.19
2019-03-10T09:43:09.890Z,953.23
2019-03-10T09:44:09.712Z,953.30
2019-03-10T09:45:09.653Z,953.22
2019-03-10T09:46:09.596Z,953.18
2019-03-10T09:47:09.540Z,953.14
2019-03-10T09:48:09.534Z,953.18
2019-03-10T09:49:09.429Z,953.27
2019-03-10T09:50:09.381Z,953.18
2019-03-10T09:51:09.321Z,953.14
2019-03-10T09:52:09.268Z,953.13
2019-03-10T09:53:09.240Z,953.21
2019-03-10T09:54:09.195Z,953.16
2019-03-10T09:55:09.109Z,953.15
2019-03-10T09:56:09.089Z,953.19
2019-03-10T09:57:08.996Z,953.17
2019-03-10T09:58:08.931Z,953.37
2019-03-10T09:59:08.881Z,953.19
2019-03-10T10:00:08.829Z,953.13
2019-03-10T10:01:08.907Z,953.23
2019-03-10T10:02:08.722Z,953.07
2019-03-10T10:03:08.660Z,952.98
2019-03-10T10:04:08.602Z,952.96
2019-03-10T10:05:08.551Z,952.78
2019-03-10T10:06:08.546Z,952.71
2019-03-10T10:07:08.441Z,952.73
2019-03-10T10:08:08.389Z,952.77
2019-03-10T10:09:08.331Z,952.61
2019-03-10T10:10:08.277Z,952.71
2019-03-10T10:11:08.255Z,952.71
2019-03-10T10:12:13.367Z,952.62
2019-03-10T10:13:08.119Z,952.62
2019-03-10T10:14:08.062Z,952.58
2019-03-10T10:15:08.005Z,952.47
2019-03-10T10:16:07.954Z,952.48
2019-03-10T10:17:07.936Z,952.58
2019-03-10T10:18:07.837Z,952.44
2019-03-10T10:19:07.786Z,952.56
2019-03-10T10:20:07.738Z,952.51
2019-03-10T10:21:07.686Z,952.32
2019-03-10T10:22:07.657Z,952.29
2019-03-10T10:23:07.627Z,952.34
2019-03-10T10:24:07.516Z,952.43
2019-03-10T10:25:07.461Z,952.47
2019-03-10T10:26:07.417Z,952.53
2019-03-10T10:27:07.389Z,952.54
2019-03-10T10:28:08.185Z,952.57
2019-03-10T10:29:07.244Z,952.55
2019-03-10T10:30:07.213Z,952.52
2019-03-10T10:31:07.169Z,952.42
2019-03-10T10:32:07.088Z,952.44
2019-03-10T10:33:07.039Z,952.46
2019-03-10T10:34:07.012Z,952.57
2019-03-10T10:35:06.923Z,952.46
2019-03-10T10:36:06.869Z,952.46
2019-03-10T10:37:06.812Z,952.46
2019-03-10T10:38:06.760Z,952.47
2019-03-10T10:39:06.736Z,952.39
2019-03-10T10:40:06.654Z,952.32
2019-03-10T10:41:06.595Z,952.17
2019-03-10T10:42:06.585Z,952.33
2019-03-10T10:43:06.491Z,952.31
2019-03-10T10:44:06.442Z,952.44
2019-03-10T10:45:06.407Z,952.33
2019-03-10T10:46:06.336Z,952.33
2019-03-10T10:47:06.277Z,952.25
2019-03-10T10:48:06.223Z,952.25
2019-03-10T10:49:06.170Z,952.19
2019-03-10T10:50:06.151Z,952.40
2019-03-10T10:51:06.064Z,952.33
2019-03-10T10:52:06.007Z,952.27
2019-03-10T10:53:05.952Z,952.14
2019-03-10T10:54:05.897Z,952.22
2019-03-10T10:55:05.907Z,952.24
2019-03-10T10:56:05.809Z,952.34
2019-03-10T10:57:05.788Z,952.13
2019-03-10T10:58:05.715Z,952.25
2019-03-10T10:59:05.630Z,952.29
2019-03-10T11:00:05.610Z,952.35
2019-03-10T11:01:05.581Z,952.41
2019-03-10T11:02:05.472Z,952.51
2019-03-10T11:03:05.421Z,952.36
2019-03-10T11:04:05.365Z,952.52
2019-03-10T11:05:05.309Z,952.32
2019-03-10T11:06:05.296Z,952.42
2019-03-10T11:07:05.204Z,952.46
2019-03-10T11:08:05.149Z,952.31
2019-03-10T11:09:05.096Z,952.46
2019-03-10T11:10:05.039Z,952.43
2019-03-10T11:11:05.042Z,952.34
2019-03-10T11:12:04.936Z,952.26
2019-03-10T11:13:04.888Z,952.39
2019-03-10T11:14:04.830Z,952.27
2019-03-10T11:15:04.778Z,952.24
2019-03-10T11:16:04.787Z,952.18
2019-03-10T11:17:04.672Z,952.04
2019-03-10T11:18:09.303Z,952.11
2019-03-10T11:19:04.572Z,951.94
2019-03-10T11:20:04.528Z,951.90
2019-03-10T11:21:04.499Z,952.02
2019-03-10T11:22:04.411Z,951.95
2019-03-10T11:23:04.363Z,951.95
2019-03-10T11:24:04.310Z,952.01
2019-03-10T11:25:04.291Z,951.81
2019-03-10T11:26:04.209Z,951.82
2019-03-10T11:27:04.170Z,951.85
2019-03-10T11:28:04.111Z,951.89
2019-03-10T11:29:04.262Z,951.85
2019-03-10T11:30:04.039Z,951.81
2019-03-10T11:31:04.030Z,951.94
2019-03-10T11:32:03.940Z,951.66
2019-03-10T11:33:03.852Z,951.63
2019-03-10T11:34:03.818Z,951.63
2019-03-10T11:35:03.756Z,951.59
2019-03-10T11:36:03.738Z,951.56
2019-03-10T11:37:03.657Z,951.63
2019-03-10T11:38:03.604Z,951.64
2019-03-10T11:39:03.584Z,951.60
2019-03-10T11:40:03.502Z,951.64
2019-03-10T11:41:03.449Z,951.51
2019-03-10T11:42:03.413Z,951.61
2019-03-10T11:43:03.354Z,951.64
2019-03-10T11:44:03.341Z,951.68
2019-03-10T11:45:03.246Z,951.58
2019-03-10T11:46:03.235Z,951.69
2019-03-10T11:47:03.145Z,951.54
2019-03-10T11:48:03.104Z,951.64
2019-03-10T11:49:03.044Z,951.48
2019-03-10T11:50:02.996Z,951.69
2019-03-10T11:51:03.068Z,951.65
2019-03-10T11:52:02.891Z,951.61
2019-03-10T11:53:02.839Z,951.64
2019-03-10T11:54:02.791Z,951.71
2019-03-10T11:55:02.762Z,951.84
2019-03-10T11:56:02.721Z,951.65
2019-03-10T11:57:02.651Z,951.79
2019-03-10T11:58:02.586Z,951.76
2019-03-10T11:59:02.540Z,951.89
2019-03-10T12:00:02.482Z,951.78
2019-03-10T12:01:02.465Z,951.73
2019-03-10T12:02:02.386Z,951.78
2019-03-10T12:03:02.340Z,951.62
2019-03-10T12:04:02.284Z,951.76
2019-03-10T12:05:02.262Z,951.64
2019-03-10T12:06:02.175Z,951.52
2019-03-10T12:07:02.156Z,951.65
2019-03-10T12:08:02.078Z,951.73
2019-03-10T12:09:02.025Z,951.69
2019-03-10T12:10:01.971Z,951.83
2019-03-10T12:11:01.961Z,951.84
2019-03-10T12:12:01.870Z,951.76
2019-03-10T12:13:01.816Z,951.82
2019-03-10T12:14:01.778Z,951.84
2019-03-10T12:15:01.725Z,951.60
2019-03-10T12:16:01.707Z,951.69
2019-03-10T12:17:01.617Z,951.79
2019-03-10T12:18:01.563Z,951.83
2019-03-10T12:19:01.520Z,951.88
2019-03-10T12:20:01.468Z,951.73
2019-03-10T12:21:01.441Z,951.73
2019-03-10T12:22:01.360Z,951.84
2019-03-10T12:23:01.372Z,951.70
2019-03-10T12:24:01.259Z,951.97
2019-03-10T12:25:01.243Z,951.77
2019-03-10T12:26:01.155Z,951.80
2019-03-10T12:27:01.108Z,951.87
2019-03-10T12:28:01.061Z,951.80